createdAt,value
2022-07-30T00:00:40.634Z,2.27
2022-07-30T00:05:38.670Z,2.77
2022-07-30T00:10:36.806Z,2.60
2022-07-30T00:15:36.354Z,2.30
2022-07-30T00:20:34.354Z,2.37
2022-07-30T00:25:33.574Z,2.53
2022-07-30T00:30:31.578Z,3.00
2022-07-30T00:35:31.270Z,2.40
2022-07-30T00:40:29.334Z,2.60
2022-07-30T00:45:27.714Z,2.57
2022-07-30T00:50:25.812Z,2.53
2022-07-30T00:55:25.762Z,2.60
2022-07-30T01:00:23.886Z,2.60
2022-07-30T01:05:22.374Z,1.80
2022-07-30T01:10:20.481Z,2.20
2022-07-30T01:15:20.623Z,2.83
2022-07-30T01:20:24.130Z,2.07
2022-07-30T01:25:31.938Z,2.20
2022-07-30T01:30:35.219Z,2.80
2022-07-30T01:35:35.441Z,3.20
2022-07-30T01:40:34.974Z,2.50
2022-07-30T01:45:35.733Z,2.30
2022-07-30T01:50:45.781Z,2.77
2022-07-30T01:55:45.816Z,2.47
2022-07-30T02:00:47.309Z,2.57
2022-07-30T02:05:51.377Z,2.27
2022-07-30T02:10:54.947Z,2.47
2022-07-30T02:15:58.964Z,2.37
2022-07-30T02:21:02.571Z,2.20
2022-07-30T02:26:06.183Z,2.33
2022-07-30T02:31:17.549Z,2.40
2022-07-30T02:36:17.978Z,2.03
2022-07-30T02:41:19.767Z,2.27
2022-07-30T02:46:20.886Z,2.97
2022-07-30T02:51:38.338Z,2.70
2022-07-30T02:56:38.754Z,2.80
2022-07-30T03:01:38.822Z,1.87
2022-07-30T03:06:38.070Z,2.20
2022-07-30T03:11:36.834Z,2.20
2022-07-30T03:16:38.384Z,2.30
2022-07-30T03:21:38.578Z,2.30
2022-07-30T03:26:38.313Z,2.50
2022-07-30T03:31:39.673Z,2.63
2022-07-30T03:36:41.543Z,2.57
2022-07-30T03:41:40.491Z,2.73
2022-07-30T03:46:45.849Z,2.10
2022-07-30T03:51:46.289Z,2.70
2022-07-30T03:56:47.201Z,2.10
2022-07-30T04:01:55.260Z,2.47
2022-07-30T04:07:11.278Z,2.30
2022-07-30T04:12:10.106Z,2.50
2022-07-30T04:17:13.885Z,2.30
2022-07-30T04:22:17.119Z,2.53
2022-07-30T04:27:15.947Z,2.20
2022-07-30T04:32:15.351Z,2.60
2022-07-30T04:37:27.183Z,2.50
2022-07-30T04:42:27.339Z,2.60
2022-07-30T04:47:34.849Z,2.07
2022-07-30T04:52:57.377Z,2.00
2022-07-30T04:58:02.103Z,2.20
2022-07-30T05:03:05.315Z,2.03
2022-07-30T05:08:04.827Z,2.47
2022-07-30T05:13:03.375Z,2.00
2022-07-30T05:18:01.410Z,2.20
2022-07-30T05:23:01.818Z,2.10
2022-07-30T05:28:00.114Z,2.10
2022-07-30T05:32:58.186Z,1.83
2022-07-30T05:38:01.556Z,1.53
2022-07-30T05:43:05.289Z,1.63
2022-07-30T05:48:03.514Z,1.70
2022-07-30T05:53:03.006Z,1.50
2022-07-30T05:58:36.264Z,1.60
2022-07-30T06:03:34.929Z,1.90
2022-07-30T06:08:54.551Z,2.30
2022-07-30T06:13:52.504Z,1.70
2022-07-30T06:18:51.079Z,1.80
2022-07-30T06:24:00.457Z,2.00
2022-07-30T06:29:08.323Z,1.70
2022-07-30T06:34:07.174Z,1.50
2022-07-30T06:39:11.197Z,1.47
2022-07-30T06:44:41.319Z,1.57
2022-07-30T06:49:55.905Z,1.90
2022-07-30T06:54:56.039Z,1.70
2022-07-30T07:00:20.641Z,2.07
2022-07-30T07:05:18.824Z,2.43
2022-07-30T07:10:21.415Z,1.90
2022-07-30T07:15:36.224Z,1.70
2022-07-30T07:20:37.258Z,1.77
2022-07-30T07:25:39.859Z,1.93
2022-07-30T07:30:37.944Z,1.70
2022-07-30T07:35:45.575Z,2.00
2022-07-30T07:40:53.445Z,1.70
2022-07-30T07:45:51.930Z,1.57
2022-07-30T07:50:50.331Z,1.60
2022-07-30T07:56:00.182Z,2.47
2022-07-30T08:00:58.483Z,2.27
2022-07-30T08:06:16.529Z,1.70
2022-07-30T08:11:38.363Z,2.47
2022-07-30T08:16:54.714Z,1.93
2022-07-30T08:22:12.671Z,1.97
2022-07-30T08:27:12.593Z,1.80
2022-07-30T08:32:10.660Z,1.73
2022-07-30T08:37:11.261Z,2.40
2022-07-30T08:42:14.837Z,2.33
2022-07-30T08:47:17.187Z,1.57
2022-07-30T08:52:54.083Z,2.00
2022-07-30T08:57:53.713Z,2.13
2022-07-30T09:02:51.721Z,1.70
2022-07-30T09:07:50.159Z,2.00
2022-07-30T09:12:53.990Z,1.87
2022-07-30T09:17:55.756Z,1.73
2022-07-30T09:22:57.582Z,1.60
2022-07-30T09:28:17.377Z,1.90
2022-07-30T09:33:38.149Z,2.40
2022-07-30T09:39:07.155Z,2.27
2022-07-30T09:44:30.753Z,2.37
2022-07-30T09:49:30.155Z,2.10
2022-07-30T09:54:51.368Z,1.57
2022-07-30T09:59:53.664Z,2.47
2022-07-30T10:04:53.180Z,2.37
2022-07-30T10:09:52.221Z,2.33
2022-07-30T10:14:56.130Z,2.73
2022-07-30T10:19:55.023Z,1.90
2022-07-30T10:25:27.675Z,1.90
2022-07-30T10:30:49.932Z,1.73
2022-07-30T10:35:49.525Z,1.97
2022-07-30T10:40:51.295Z,1.90
2022-07-30T10:45:59.397Z,1.97
2022-07-30T10:51:01.171Z,1.50
2022-07-30T10:56:18.068Z,1.70
2022-07-30T11:01:21.770Z,1.63
2022-07-30T11:06:29.199Z,1.80
2022-07-30T11:12:01.160Z,1.20
2022-07-30T11:17:05.913Z,1.40
2022-07-30T11:22:24.147Z,1.50
2022-07-30T11:27:42.300Z,1.60
2022-07-30T11:32:48.608Z,1.43
2022-07-30T11:38:02.119Z,1.20
2022-07-30T11:43:20.187Z,1.53
2022-07-30T11:48:21.829Z,1.07
2022-07-30T11:53:21.407Z,1.40
2022-07-30T11:58:28.512Z,0.90
2022-07-30T12:03:29.959Z,1.17
2022-07-30T12:08:35.175Z,1.00
2022-07-30T12:13:44.843Z,1.50
2022-07-30T12:18:47.200Z,1.53
2022-07-30T12:23:55.368Z,1.57
2022-07-30T12:28:54.963Z,1.20
2022-07-30T12:33:56.242Z,1.10
2022-07-30T12:38:57.970Z,1.10
2022-07-30T12:43:57.330Z,1.60
2022-07-30T12:49:02.764Z,1.20
2022-07-30T12:54:21.018Z,1.30
2022-07-30T12:59:23.630Z,1.40
2022-07-30T13:04:23.035Z,1.13
2022-07-30T13:09:22.458Z,1.10
2022-07-30T13:14:26.592Z,1.30
2022-07-30T13:19:28.042Z,1.37
2022-07-30T13:24:28.919Z,1.40
2022-07-30T13:29:26.896Z,1.37
2022-07-30T13:34:26.626Z,1.60
2022-07-30T13:39:24.579Z,1.47
2022-07-30T13:44:22.496Z,1.30
2022-07-30T13:49:20.531Z,1.47
2022-07-30T13:54:19.862Z,1.27
2022-07-30T13:59:17.859Z,1.40
2022-07-30T14:04:15.852Z,1.33
2022-07-30T14:09:13.813Z,1.30
2022-07-30T14:14:13.185Z,1.20
2022-07-30T14:19:23.370Z,1.80
2022-07-30T14:24:22.577Z,1.73
2022-07-30T14:29:21.897Z,1.43
2022-07-30T14:34:19.881Z,1.67
2022-07-30T14:39:17.850Z,1.30
2022-07-30T14:44:16.568Z,1.57
2022-07-30T14:49:16.733Z,1.33
2022-07-30T14:54:14.826Z,1.77
2022-07-30T14:59:12.922Z,1.50
2022-07-30T15:04:11.531Z,1.60
2022-07-30T15:09:11.405Z,1.10
2022-07-30T15:14:09.389Z,1.37
2022-07-30T15:19:07.417Z,1.80
2022-07-30T15:24:06.204Z,1.70
2022-07-30T15:29:06.820Z,1.40
2022-07-30T15:34:10.718Z,1.70
2022-07-30T15:39:08.761Z,1.20
2022-07-30T15:44:08.186Z,1.20
2022-07-30T15:49:07.122Z,1.43
2022-07-30T15:54:06.707Z,1.33
2022-07-30T15:59:07.190Z,1.10
2022-07-30T16:04:05.788Z,1.40
2022-07-30T16:09:04.936Z,1.40
2022-07-30T16:14:02.959Z,1.53
2022-07-30T16:19:02.319Z,1.20
2022-07-30T16:24:00.388Z,1.40
2022-07-30T16:28:58.456Z,1.40
2022-07-30T16:33:56.438Z,1.47
2022-07-30T16:38:55.810Z,1.33
2022-07-30T16:43:53.976Z,1.00
2022-07-30T16:48:52.231Z,1.20
2022-07-30T16:53:50.321Z,1.40
2022-07-30T16:58:49.729Z,1.57
2022-07-30T17:03:47.720Z,1.20
2022-07-30T17:08:45.775Z,1.37
2022-07-30T17:13:47.610Z,1.35
2022-07-30T17:18:46.913Z,1.30
2022-07-30T17:23:45.219Z,1.00
2022-07-30T17:28:43.364Z,1.70
2022-07-30T17:33:41.375Z,1.20
2022-07-30T17:38:40.725Z,1.40
2022-07-30T17:43:38.706Z,1.63
2022-07-30T17:48:36.736Z,1.37
2022-07-30T17:53:34.994Z,1.23
2022-07-30T17:58:35.405Z,1.63
2022-07-30T18:03:33.526Z,1.53
2022-07-30T18:08:33.125Z,1.80
2022-07-30T18:13:31.277Z,1.37
2022-07-30T18:18:30.718Z,1.80
2022-07-30T18:23:34.680Z,1.40
2022-07-30T18:28:33.226Z,1.53
2022-07-30T18:33:32.828Z,1.63
2022-07-30T18:38:30.901Z,1.53
2022-07-30T18:43:29.759Z,1.70
2022-07-30T18:48:27.881Z,2.40
2022-07-30T18:53:27.859Z,1.67
2022-07-30T18:58:26.010Z,2.10
2022-07-30T19:03:25.377Z,1.83
2022-07-30T19:08:23.475Z,1.67
2022-07-30T19:13:24.492Z,1.73
2022-07-30T19:18:22.934Z,2.00
2022-07-30T19:23:21.280Z,2.10
2022-07-30T19:28:19.355Z,2.57
2022-07-30T19:33:18.732Z,2.40
2022-07-30T19:38:23.950Z,2.00
2022-07-30T19:43:24.202Z,1.73
2022-07-30T19:48:28.616Z,2.10
2022-07-30T19:53:31.129Z,2.80
2022-07-30T19:58:30.203Z,1.90
2022-07-30T20:03:31.955Z,2.57
2022-07-30T20:08:30.162Z,2.20
2022-07-30T20:13:44.625Z,2.27
2022-07-30T20:18:47.410Z,2.30
2022-07-30T20:23:47.829Z,2.97
2022-07-30T20:28:52.376Z,2.40
2022-07-30T20:33:52.432Z,2.33
2022-07-30T20:38:50.612Z,2.20
2022-07-30T20:43:52.421Z,2.33
2022-07-30T20:48:54.384Z,2.90
2022-07-30T20:53:52.483Z,6.47
2022-07-30T20:58:50.922Z,2.77
2022-07-30T21:03:50.182Z,2.43
2022-07-30T21:08:49.592Z,2.60
2022-07-30T21:13:48.132Z,3.03
2022-07-30T21:18:49.266Z,2.87
2022-07-30T21:23:50.064Z,2.60
2022-07-30T21:28:48.154Z,3.30
2022-07-30T21:33:46.628Z,3.03
2022-07-30T21:38:45.328Z,2.63
2022-07-30T21:43:45.531Z,2.77
2022-07-30T21:48:44.216Z,2.73
2022-07-30T21:53:46.067Z,3.10
2022-07-30T21:58:46.127Z,2.73
2022-07-30T22:04:02.719Z,2.80
2022-07-30T22:09:18.948Z,2.70
2022-07-30T22:14:26.095Z,2.97
2022-07-30T22:19:25.950Z,3.30
2022-07-30T22:24:29.286Z,2.87
2022-07-30T22:29:34.090Z,2.90
2022-07-30T22:34:32.820Z,3.40
2022-07-30T22:39:31.607Z,2.90
2022-07-30T22:44:31.651Z,3.67
2022-07-30T22:49:45.448Z,3.43
2022-07-30T23:00:12.186Z,3.70
2022-07-30T23:05:11.719Z,3.17
2022-07-30T23:10:18.197Z,4.03
2022-07-30T23:12:30.761Z,3.80
2022-07-30T23:15:18.262Z,4.20
2022-07-30T23:20:17.922Z,3.90
2022-07-30T23:25:16.141Z,3.90
2022-07-30T23:30:14.689Z,4.33
2022-07-30T23:35:13.994Z,4.57
2022-07-30T23:40:12.855Z,4.57
2022-07-30T23:45:11.854Z,4.10
2022-07-30T23:50:10.738Z,4.97
2022-07-30T23:55:11.754Z,4.53
